createdAt,value
2023-03-15T00:01:24.162Z,100.00
2023-03-15T00:03:50.792Z,100.00
2023-03-15T00:06:17.479Z,100.00
2023-03-15T00:08:47.554Z,100.00
2023-03-15T00:11:18.523Z,100.00
2023-03-15T00:13:46.640Z,100.00
2023-03-15T00:16:18.319Z,100.00
2023-03-15T00:18:47.198Z,100.00
2023-03-15T00:21:13.928Z,100.00
2023-03-15T00:23:40.449Z,100.00
2023-03-15T00:26:06.992Z,100.00
2023-03-15T00:28:33.562Z,100.00
2023-03-15T00:31:05.033Z,100.00
2023-03-15T00:33:35.056Z,100.00
2023-03-15T00:36:06.731Z,100.00
2023-03-15T00:38:34.947Z,100.00
2023-03-15T00:41:12.401Z,100.00
2023-03-15T00:43:39.180Z,100.00
2023-03-15T00:46:06.110Z,100.00
2023-03-15T00:48:35.269Z,100.00
2023-03-15T00:51:09.854Z,100.00
2023-03-15T00:53:38.466Z,100.00
2023-03-15T00:56:13.588Z,100.00
2023-03-15T00:58:41.117Z,100.00
2023-03-15T01:01:09.941Z,100.00
2023-03-15T01:03:37.112Z,100.00
2023-03-15T01:06:09.784Z,100.00
2023-03-15T01:08:36.414Z,100.00
2023-03-15T01:11:07.514Z,100.00
2023-03-15T01:13:34.793Z,100.00
2023-03-15T01:16:01.560Z,100.00
2023-03-15T01:18:28.193Z,100.00
2023-03-15T01:20:54.966Z,100.00
2023-03-15T01:23:21.584Z,100.00
2023-03-15T01:25:48.248Z,100.00
2023-03-15T01:28:14.947Z,100.00
2023-03-15T01:30:49.801Z,100.00
2023-03-15T01:33:16.814Z,100.00
2023-03-15T01:35:43.404Z,100.00
2023-03-15T01:38:10.061Z,100.00
2023-03-15T01:40:44.636Z,100.00
2023-03-15T01:43:18.043Z,100.00
2023-03-15T01:45:59.690Z,100.00
2023-03-15T01:48:34.258Z,100.00
2023-03-15T01:51:04.952Z,100.00
2023-03-15T01:53:33.272Z,100.00
2023-03-15T01:56:01.729Z,100.00
2023-03-15T01:58:29.081Z,100.00
2023-03-15T02:00:55.891Z,100.00
2023-03-15T02:03:28.096Z,100.00
2023-03-15T02:05:59.000Z,100.00
2023-03-15T02:08:33.166Z,100.00
2023-03-15T02:11:04.063Z,100.00
2023-03-15T02:13:32.500Z,100.00
2023-03-15T02:15:59.846Z,100.00
2023-03-15T02:18:26.901Z,100.00
2023-03-15T02:21:05.367Z,100.00
2023-03-15T02:23:32.451Z,100.00
2023-03-15T02:26:27.144Z,100.00
2023-03-15T02:28:54.840Z,100.00
2023-03-15T02:31:29.269Z,100.00
2023-03-15T02:34:01.673Z,100.00
2023-03-15T02:36:30.005Z,100.00
2023-03-15T02:39:04.451Z,100.00
2023-03-15T02:41:54.690Z,100.00
2023-03-15T02:44:40.273Z,100.00
2023-03-15T02:47:53.038Z,100.00
2023-03-15T02:50:21.745Z,100.00
2023-03-15T02:52:48.494Z,100.00
2023-03-15T02:55:15.106Z,100.00
2023-03-15T02:57:48.794Z,100.00
2023-03-15T03:00:21.648Z,100.00
2023-03-15T03:02:56.369Z,100.00
2023-03-15T03:05:27.218Z,100.00
2023-03-15T03:07:54.001Z,100.00
2023-03-15T03:10:27.231Z,100.00
2023-03-15T03:12:53.945Z,100.00
2023-03-15T03:15:26.292Z,100.00
2023-03-15T03:17:55.876Z,100.00
2023-03-15T03:20:24.643Z,100.00
2023-03-15T03:22:51.226Z,100.00
2023-03-15T03:25:19.500Z,100.00
2023-03-15T03:27:46.123Z,100.00
2023-03-15T03:30:14.494Z,100.00
2023-03-15T03:32:44.658Z,100.00
2023-03-15T03:35:11.346Z,100.00
2023-03-15T03:37:39.798Z,100.00
2023-03-15T03:40:08.468Z,100.00
2023-03-15T03:42:35.642Z,100.00
2023-03-15T03:45:03.663Z,100.00
2023-03-15T03:47:30.337Z,100.00
2023-03-15T03:49:56.939Z,100.00
2023-03-15T03:52:23.947Z,100.00
2023-03-15T03:54:50.927Z,100.00
2023-03-15T03:57:19.260Z,100.00
2023-03-15T03:59:46.945Z,100.00
2023-03-15T04:02:14.576Z,100.00
2023-03-15T04:04:42.242Z,100.00
2023-03-15T04:07:08.911Z,100.00
2023-03-15T04:09:38.714Z,100.00
2023-03-15T04:12:06.513Z,100.00
2023-03-15T04:14:36.722Z,100.00
2023-03-15T04:17:03.968Z,100.00
2023-03-15T04:19:41.936Z,100.00
2023-03-15T04:22:09.749Z,100.00
2023-03-15T04:24:36.849Z,100.00
2023-03-15T04:27:03.966Z,100.00
2023-03-15T04:29:30.671Z,100.00
2023-03-15T04:32:02.022Z,100.00
2023-03-15T04:34:29.892Z,100.00
2023-03-15T04:36:57.529Z,100.00
2023-03-15T04:39:24.259Z,100.00
2023-03-15T04:41:51.386Z,100.00
2023-03-15T04:44:18.078Z,100.00
2023-03-15T04:46:44.940Z,100.00
2023-03-15T04:49:11.663Z,100.00
2023-03-15T04:51:38.206Z,100.00
2023-03-15T04:54:04.831Z,100.00
2023-03-15T04:56:31.533Z,100.00
2023-03-15T04:58:58.188Z,100.00
2023-03-15T05:01:30.301Z,100.00
2023-03-15T05:04:00.103Z,100.00
2023-03-15T05:06:26.817Z,100.00
2023-03-15T05:08:54.500Z,100.00
2023-03-15T05:11:21.384Z,100.00
2023-03-15T05:13:47.939Z,100.00
2023-03-15T05:16:14.592Z,100.00
2023-03-15T05:18:41.243Z,100.00
2023-03-15T05:21:07.826Z,100.00
2023-03-15T05:23:34.514Z,100.00
2023-03-15T05:26:01.316Z,100.00
2023-03-15T05:28:28.216Z,100.00
2023-03-15T05:30:54.876Z,100.00
2023-03-15T05:33:21.936Z,100.00
2023-03-15T05:35:48.997Z,100.00
2023-03-15T05:38:15.962Z,100.00
2023-03-15T05:40:47.737Z,100.00
2023-03-15T05:43:14.411Z,100.00
2023-03-15T05:45:41.130Z,100.00
2023-03-15T05:48:07.772Z,100.00
2023-03-15T05:50:34.470Z,100.00
2023-03-15T05:53:01.053Z,100.00
2023-03-15T05:55:27.693Z,100.00
2023-03-15T05:57:54.280Z,100.00
2023-03-15T06:00:22.279Z,100.00
2023-03-15T06:02:50.343Z,100.00
2023-03-15T06:05:17.045Z,100.00
2023-03-15T06:07:43.725Z,100.00
2023-03-15T06:10:11.888Z,100.00
2023-03-15T06:12:42.984Z,100.00
2023-03-15T06:15:10.106Z,100.00
2023-03-15T06:17:36.729Z,100.00
2023-03-15T06:20:04.162Z,100.00
2023-03-15T06:22:30.777Z,100.00
2023-03-15T06:24:57.342Z,100.00
2023-03-15T06:27:24.483Z,100.00
2023-03-15T06:29:51.091Z,100.00
2023-03-15T06:32:17.906Z,100.00
2023-03-15T06:34:44.527Z,100.00
2023-03-15T06:37:16.305Z,100.00
2023-03-15T06:39:46.993Z,100.00
2023-03-15T06:42:13.868Z,100.00
2023-03-15T06:44:41.970Z,100.00
2023-03-15T06:47:11.160Z,100.00
2023-03-15T06:49:41.208Z,100.00
2023-03-15T06:52:08.453Z,100.00
2023-03-15T06:54:35.276Z,100.00
2023-03-15T06:57:03.635Z,100.00
2023-03-15T06:59:30.338Z,100.00
2023-03-15T07:01:57.323Z,100.00
2023-03-15T07:04:23.948Z,100.00
2023-03-15T07:06:50.725Z,100.00
2023-03-15T07:09:17.852Z,100.00
2023-03-15T07:11:44.482Z,100.00
2023-03-15T07:14:11.082Z,100.00
2023-03-15T07:16:37.905Z,100.00
2023-03-15T07:19:04.824Z,100.00
2023-03-15T07:21:31.419Z,100.00
2023-03-15T07:23:58.102Z,100.00
2023-03-15T07:26:24.617Z,100.00
2023-03-15T07:28:51.244Z,100.00
2023-03-15T07:31:17.860Z,100.00
2023-03-15T07:33:44.505Z,100.00
2023-03-15T07:36:11.158Z,100.00
2023-03-15T07:38:38.816Z,100.00
2023-03-15T07:41:07.232Z,100.00
2023-03-15T07:43:34.389Z,100.00
2023-03-15T07:46:01.569Z,100.00
2023-03-15T07:48:29.524Z,100.00
2023-03-15T07:50:56.979Z,100.00
2023-03-15T07:53:23.803Z,100.00
2023-03-15T07:55:50.619Z,100.00
2023-03-15T07:58:20.075Z,100.00
2023-03-15T08:00:47.010Z,100.00
2023-03-15T08:03:13.651Z,100.00
2023-03-15T08:05:40.280Z,100.00
2023-03-15T08:08:09.652Z,100.00
2023-03-15T08:10:36.312Z,100.00
2023-03-15T08:13:02.919Z,100.00
2023-03-15T08:15:29.515Z,100.00
2023-03-15T08:17:56.102Z,100.00
2023-03-15T08:20:22.718Z,100.00
2023-03-15T08:22:51.530Z,100.00
2023-03-15T08:25:21.244Z,100.00
2023-03-15T08:27:48.621Z,100.00
2023-03-15T08:30:17.087Z,100.00
2023-03-15T08:32:46.075Z,100.00
2023-03-15T08:35:15.940Z,100.00
2023-03-15T08:37:47.875Z,100.00
2023-03-15T08:40:16.467Z,100.00
2023-03-15T08:42:43.062Z,100.00
2023-03-15T08:45:10.197Z,100.00
2023-03-15T08:47:37.169Z,100.00
2023-03-15T08:50:15.213Z,100.00
2023-03-15T08:52:42.497Z,100.00
2023-03-15T08:55:10.811Z,100.00
2023-03-15T08:57:37.366Z,100.00
2023-03-15T09:00:09.402Z,100.00
2023-03-15T09:02:37.314Z,100.00
2023-03-15T09:05:06.999Z,100.00
2023-03-15T09:07:34.312Z,100.00
2023-03-15T09:10:02.420Z,100.00
2023-03-15T09:12:30.713Z,100.00
2023-03-15T09:14:57.299Z,100.00
2023-03-15T09:17:23.876Z,100.00
2023-03-15T09:19:50.430Z,100.00
2023-03-15T09:22:29.047Z,100.00
2023-03-15T09:25:04.635Z,100.00
2023-03-15T09:27:32.102Z,100.00
2023-03-15T09:29:59.188Z,100.00
2023-03-15T09:32:26.267Z,100.00
2023-03-15T09:34:53.662Z,100.00
2023-03-15T09:37:21.930Z,100.00
2023-03-15T09:39:48.762Z,100.00
2023-03-15T09:42:25.346Z,100.00
2023-03-15T09:45:04.558Z,100.00
2023-03-15T09:47:46.680Z,100.00
2023-03-15T09:50:22.411Z,100.00
2023-03-15T09:52:51.177Z,100.00
2023-03-15T09:55:24.242Z,100.00
2023-03-15T09:58:02.474Z,100.00
2023-03-15T10:00:38.311Z,100.00
2023-03-15T10:03:09.866Z,100.00
2023-03-15T10:05:47.600Z,100.00
2023-03-15T10:08:18.854Z,100.00
2023-03-15T10:11:03.264Z,100.00
2023-03-15T10:13:42.484Z,100.00
2023-03-15T10:16:32.776Z,100.00
2023-03-15T10:19:17.893Z,100.00
2023-03-15T10:21:50.156Z,100.00
2023-03-15T10:24:24.402Z,100.00
2023-03-15T10:26:53.814Z,100.00
2023-03-15T10:29:23.422Z,100.00
2023-03-15T10:31:52.724Z,100.00
2023-03-15T10:34:19.517Z,100.00
2023-03-15T10:36:49.999Z,100.00
2023-03-15T10:39:19.850Z,100.00
2023-03-15T10:41:48.705Z,100.00
2023-03-15T10:44:19.149Z,100.00
2023-03-15T10:47:09.869Z,100.00
2023-03-15T10:49:44.666Z,100.00
2023-03-15T10:52:40.694Z,100.00
2023-03-15T10:55:11.697Z,100.00
2023-03-15T10:57:41.164Z,100.00
2023-03-15T11:00:25.602Z,83.58
2023-03-15T11:03:02.214Z,100.00
2023-03-15T11:05:39.331Z,96.78
2023-03-15T11:08:12.365Z,100.00
2023-03-15T11:10:39.104Z,100.00
2023-03-15T11:13:11.972Z,93.25
2023-03-15T11:15:46.839Z,81.78
2023-03-15T11:18:26.718Z,100.00
2023-03-15T11:20:56.469Z,86.65
2023-03-15T11:23:29.913Z,76.45
2023-03-15T11:25:56.705Z,79.77
2023-03-15T11:28:28.420Z,100.00
2023-03-15T11:30:57.625Z,85.30
2023-03-15T11:33:43.418Z,78.29
2023-03-15T11:36:20.319Z,73.18
2023-03-15T11:38:47.909Z,69.60
2023-03-15T11:41:20.708Z,68.19
2023-03-15T11:43:47.259Z,66.41
2023-03-15T11:46:36.889Z,65.12
2023-03-15T11:49:14.320Z,76.17
2023-03-15T11:51:41.427Z,84.04
2023-03-15T11:54:14.052Z,66.81
2023-03-15T11:56:43.632Z,74.36
2023-03-15T11:59:20.389Z,69.73
2023-03-15T12:01:49.630Z,72.97
2023-03-15T12:04:28.248Z,88.16
2023-03-15T12:06:57.234Z,87.19
2023-03-15T12:09:33.128Z,91.30
2023-03-15T12:12:01.652Z,73.82
2023-03-15T12:14:34.602Z,82.97
2023-03-15T12:17:29.234Z,70.84
2023-03-15T12:20:01.528Z,81.56
2023-03-15T12:22:33.871Z,84.42
2023-03-15T12:25:12.003Z,85.67
2023-03-15T12:27:47.829Z,85.39
2023-03-15T12:30:30.745Z,82.33
2023-03-15T12:32:57.965Z,86.93
2023-03-15T12:35:31.051Z,100.00
2023-03-15T12:38:01.548Z,92.51
2023-03-15T12:40:28.088Z,100.00
2023-03-15T12:42:54.622Z,92.17
2023-03-15T12:45:41.501Z,91.58
2023-03-15T12:48:12.892Z,94.01
2023-03-15T12:50:46.105Z,90.35
2023-03-15T12:53:19.814Z,87.88
2023-03-15T12:55:47.526Z,86.34
2023-03-15T12:58:17.919Z,78.29
2023-03-15T13:00:45.790Z,84.96
2023-03-15T13:03:16.642Z,75.52
2023-03-15T13:06:04.091Z,76.52
2023-03-15T13:08:37.086Z,77.55
2023-03-15T13:11:15.712Z,77.24
2023-03-15T13:14:07.370Z,75.00
2023-03-15T13:16:40.333Z,74.15
2023-03-15T13:19:16.018Z,82.79
2023-03-15T13:22:01.741Z,76.58
2023-03-15T13:24:57.814Z,76.66
2023-03-15T13:27:55.611Z,82.93
2023-03-15T13:30:39.087Z,74.78
2023-03-15T13:33:08.460Z,75.97
2023-03-15T13:35:46.390Z,82.95
2023-03-15T13:38:26.614Z,76.60
2023-03-15T13:40:55.243Z,76.81
2023-03-15T13:43:25.944Z,73.84
2023-03-15T13:45:52.562Z,74.25
2023-03-15T13:48:19.297Z,73.26
2023-03-15T13:50:52.437Z,75.12
2023-03-15T13:53:35.158Z,77.43
2023-03-15T13:56:14.718Z,77.77
2023-03-15T13:58:43.187Z,65.69
2023-03-15T14:01:12.866Z,74.13
2023-03-15T14:03:43.935Z,76.98
2023-03-15T14:06:21.896Z,74.98
2023-03-15T14:08:49.748Z,78.75
2023-03-15T14:11:34.919Z,76.86
2023-03-15T14:14:04.291Z,71.79
2023-03-15T14:17:03.103Z,72.60
2023-03-15T14:19:34.396Z,80.32
2023-03-15T14:22:03.912Z,74.10
2023-03-15T14:24:35.689Z,66.36
2023-03-15T14:27:14.638Z,65.28
2023-03-15T14:29:48.691Z,67.90
2023-03-15T14:32:36.323Z,69.15
2023-03-15T14:35:08.088Z,66.99
2023-03-15T14:37:43.631Z,71.35
2023-03-15T14:40:34.894Z,70.82
2023-03-15T14:43:03.294Z,71.92
2023-03-15T14:45:32.427Z,74.96
2023-03-15T14:48:05.579Z,71.78
2023-03-15T14:50:44.103Z,71.30
2023-03-15T14:53:16.590Z,75.57
2023-03-15T14:55:43.363Z,73.90
2023-03-15T14:58:15.812Z,79.91
2023-03-15T15:00:44.115Z,77.66
2023-03-15T15:03:19.762Z,74.45
2023-03-15T15:05:46.739Z,67.86
2023-03-15T15:08:16.411Z,77.55
2023-03-15T15:10:45.205Z,81.90
2023-03-15T15:13:23.684Z,76.81
2023-03-15T15:15:56.048Z,73.23
2023-03-15T15:18:25.625Z,74.88
2023-03-15T15:20:54.409Z,74.70
2023-03-15T15:23:24.605Z,75.83
2023-03-15T15:25:53.303Z,73.18
2023-03-15T15:28:33.129Z,78.08
2023-03-15T15:31:01.620Z,79.07
2023-03-15T15:33:28.136Z,79.35
2023-03-15T15:35:56.703Z,76.20
2023-03-15T15:38:38.596Z,77.90
2023-03-15T15:41:06.796Z,81.03
2023-03-15T15:43:33.810Z,79.42
2023-03-15T15:46:00.546Z,79.57
2023-03-15T15:48:27.120Z,79.96
2023-03-15T15:50:53.677Z,85.55
2023-03-15T15:53:20.200Z,84.92
2023-03-15T15:55:46.863Z,84.17
2023-03-15T15:58:14.185Z,86.45
2023-03-15T16:00:40.899Z,84.24
2023-03-15T16:03:15.182Z,86.08
2023-03-15T16:05:42.489Z,86.10
2023-03-15T16:08:38.538Z,81.39
2023-03-15T16:11:05.404Z,83.77
2023-03-15T16:13:31.975Z,84.60
2023-03-15T16:15:58.632Z,84.61
2023-03-15T16:18:25.640Z,83.16
2023-03-15T16:20:52.550Z,85.40
2023-03-15T16:23:24.193Z,87.61
2023-03-15T16:25:56.048Z,85.79
2023-03-15T16:28:23.811Z,85.44
2023-03-15T16:30:51.213Z,91.20
2023-03-15T16:33:20.275Z,88.64
2023-03-15T16:35:53.178Z,85.95
2023-03-15T16:38:24.588Z,86.84
2023-03-15T16:40:53.048Z,84.89
2023-03-15T16:43:20.171Z,85.63
2023-03-15T16:45:47.035Z,84.69
2023-03-15T16:48:14.446Z,84.96
2023-03-15T16:50:42.441Z,89.58
2023-03-15T16:53:12.473Z,98.27
2023-03-15T16:55:39.721Z,100.00
2023-03-15T16:58:18.641Z,100.00
2023-03-15T17:00:48.450Z,100.00
2023-03-15T17:03:16.877Z,100.00
2023-03-15T17:05:47.299Z,100.00
2023-03-15T17:08:18.820Z,100.00
2023-03-15T17:10:45.732Z,100.00
2023-03-15T17:13:15.552Z,100.00
2023-03-15T17:15:42.800Z,100.00
2023-03-15T17:18:18.436Z,100.00
2023-03-15T17:20:49.040Z,100.00
2023-03-15T17:23:16.613Z,100.00
2023-03-15T17:25:43.543Z,100.00
2023-03-15T17:28:10.126Z,100.00
2023-03-15T17:30:37.546Z,100.00
2023-03-15T17:33:07.328Z,100.00
2023-03-15T17:35:37.881Z,100.00
2023-03-15T17:38:06.421Z,100.00
2023-03-15T17:40:35.846Z,100.00
2023-03-15T17:43:04.246Z,100.00
2023-03-15T17:45:33.132Z,100.00
2023-03-15T17:48:01.137Z,100.00
2023-03-15T17:50:30.688Z,100.00
2023-03-15T17:53:12.024Z,100.00
2023-03-15T17:55:39.128Z,100.00
2023-03-15T17:58:23.914Z,100.00
2023-03-15T18:00:53.935Z,100.00
2023-03-15T18:03:22.212Z,100.00
2023-03-15T18:05:49.258Z,100.00
2023-03-15T18:08:19.021Z,100.00
2023-03-15T18:10:46.976Z,100.00
2023-03-15T18:13:17.945Z,100.00
2023-03-15T18:15:49.921Z,100.00
2023-03-15T18:18:17.068Z,100.00
2023-03-15T18:20:45.352Z,100.00
2023-03-15T18:23:15.216Z,100.00
2023-03-15T18:25:42.543Z,100.00
2023-03-15T18:28:09.542Z,100.00
2023-03-15T18:30:37.095Z,100.00
2023-03-15T18:33:05.733Z,100.00
2023-03-15T18:35:34.666Z,100.00
2023-03-15T18:38:01.461Z,100.00
2023-03-15T18:40:30.880Z,100.00
2023-03-15T18:42:58.626Z,100.00
2023-03-15T18:45:33.854Z,100.00
2023-03-15T18:48:00.594Z,100.00
2023-03-15T18:50:28.583Z,100.00
2023-03-15T18:52:55.718Z,100.00
2023-03-15T18:55:22.720Z,100.00
2023-03-15T18:57:51.091Z,100.00
2023-03-15T19:00:25.980Z,100.00
2023-03-15T19:02:55.560Z,100.00
2023-03-15T19:05:22.760Z,100.00
2023-03-15T19:07:49.345Z,100.00
2023-03-15T19:10:19.046Z,100.00
2023-03-15T19:12:47.240Z,100.00
2023-03-15T19:15:17.442Z,100.00
2023-03-15T19:17:46.447Z,100.00
2023-03-15T19:20:15.557Z,100.00
2023-03-15T19:22:43.033Z,100.00
2023-03-15T19:25:11.653Z,100.00
2023-03-15T19:27:38.395Z,100.00
2023-03-15T19:30:07.991Z,100.00
2023-03-15T19:32:35.993Z,100.00
2023-03-15T19:35:02.703Z,100.00
2023-03-15T19:37:29.283Z,100.00
2023-03-15T19:39:55.906Z,100.00
2023-03-15T19:42:23.135Z,100.00
2023-03-15T19:44:51.609Z,100.00
2023-03-15T19:47:18.271Z,100.00
2023-03-15T19:49:45.063Z,100.00
2023-03-15T19:52:11.812Z,100.00
2023-03-15T19:54:38.382Z,100.00
2023-03-15T19:57:05.048Z,100.00
2023-03-15T19:59:35.639Z,100.00
2023-03-15T20:02:02.269Z,100.00
2023-03-15T20:04:28.837Z,100.00
2023-03-15T20:06:55.380Z,100.00
2023-03-15T20:09:21.943Z,100.00
2023-03-15T20:11:48.533Z,100.00
2023-03-15T20:14:15.494Z,100.00
2023-03-15T20:16:42.091Z,100.00
2023-03-15T20:19:08.694Z,100.00
2023-03-15T20:21:36.064Z,100.00
2023-03-15T20:24:02.647Z,100.00
2023-03-15T20:26:31.219Z,100.00
2023-03-15T20:28:57.991Z,100.00
2023-03-15T20:31:24.601Z,100.00
2023-03-15T20:33:51.652Z,100.00
2023-03-15T20:36:18.879Z,100.00
2023-03-15T20:38:46.260Z,100.00
2023-03-15T20:41:15.730Z,100.00
2023-03-15T20:43:42.334Z,100.00
2023-03-15T20:46:10.015Z,100.00
2023-03-15T20:48:37.523Z,100.00
2023-03-15T20:51:05.626Z,100.00
2023-03-15T20:53:34.109Z,100.00
2023-03-15T20:56:01.139Z,100.00
2023-03-15T20:58:28.596Z,100.00
2023-03-15T21:01:06.296Z,100.00
2023-03-15T21:03:34.560Z,100.00
2023-03-15T21:06:03.595Z,100.00
2023-03-15T21:08:31.283Z,100.00
2023-03-15T21:10:58.427Z,100.00
2023-03-15T21:13:25.952Z,100.00
2023-03-15T21:15:53.781Z,100.00
2023-03-15T21:18:23.178Z,100.00
2023-03-15T21:20:57.702Z,100.00
2023-03-15T21:23:28.042Z,100.00
2023-03-15T21:25:56.431Z,100.00
2023-03-15T21:28:24.055Z,100.00
2023-03-15T21:30:53.344Z,100.00
2023-03-15T21:33:21.853Z,100.00
2023-03-15T21:35:49.273Z,100.00
2023-03-15T21:38:16.754Z,100.00
2023-03-15T21:40:48.219Z,100.00
2023-03-15T21:43:15.989Z,100.00
2023-03-15T21:45:43.146Z,100.00
2023-03-15T21:48:10.219Z,100.00
2023-03-15T21:50:36.896Z,100.00
2023-03-15T21:53:04.027Z,100.00
2023-03-15T21:55:33.791Z,100.00
2023-03-15T21:58:10.518Z,100.00
2023-03-15T22:00:38.146Z,100.00
2023-03-15T22:03:05.781Z,100.00
2023-03-15T22:05:35.951Z,100.00
2023-03-15T22:08:03.109Z,100.00
2023-03-15T22:10:29.646Z,100.00
2023-03-15T22:12:56.216Z,100.00
2023-03-15T22:15:22.861Z,100.00
2023-03-15T22:17:49.530Z,100.00
2023-03-15T22:20:16.909Z,100.00
2023-03-15T22:22:45.109Z,100.00
2023-03-15T22:25:12.029Z,100.00
2023-03-15T22:27:38.998Z,100.00
2023-03-15T22:30:06.972Z,100.00
2023-03-15T22:32:33.625Z,100.00
2023-03-15T22:35:00.294Z,100.00
2023-03-15T22:37:27.120Z,100.00
2023-03-15T22:39:53.750Z,100.00
2023-03-15T22:42:21.499Z,100.00
2023-03-15T22:44:48.199Z,100.00
2023-03-15T22:47:14.772Z,100.00
2023-03-15T22:49:41.367Z,100.00
2023-03-15T22:52:08.584Z,100.00
2023-03-15T22:54:35.263Z,100.00
2023-03-15T22:57:01.875Z,100.00
2023-03-15T22:59:28.993Z,100.00
2023-03-15T23:01:57.105Z,100.00
2023-03-15T23:04:24.012Z,100.00
2023-03-15T23:06:51.749Z,100.00
2023-03-15T23:09:18.432Z,100.00
2023-03-15T23:11:45.028Z,100.00
2023-03-15T23:14:11.612Z,100.00
2023-03-15T23:16:38.203Z,100.00
2023-03-15T23:19:05.021Z,100.00
2023-03-15T23:21:31.609Z,100.00
2023-03-15T23:23:58.768Z,100.00
2023-03-15T23:26:25.489Z,100.00
2023-03-15T23:28:53.092Z,100.00
2023-03-15T23:31:20.031Z,100.00
2023-03-15T23:33:49.436Z,100.00
2023-03-15T23:36:15.988Z,100.00
2023-03-15T23:38:42.510Z,100.00
2023-03-15T23:41:09.120Z,100.00
2023-03-15T23:43:35.726Z,100.00
2023-03-15T23:46:04.926Z,100.00
2023-03-15T23:48:35.240Z,100.00
2023-03-15T23:51:05.656Z,100.00
2023-03-15T23:53:32.309Z,100.00
2023-03-15T23:55:59.016Z,100.00
2023-03-15T23:58:25.784Z,100.00
